Time,TemperatureF,DewpointF,PressureIn,WindDirection,WindDirectionDegrees,WindSpeedMPH,WindSpeedGustMPH,Humidity,HourlyPrecipIn,Conditions,Clouds,dailyrainin,SolarRadiationWatts/m^2,SoftwareType,DateUTC
2014-09-01 00:01:00,71.8,70.9,29.91,SE,135,2.3,2.3,97,0.00,RA,,0.00,0.0,WeatherDisplay:10.37,2014-09-01 04:01:00,
2014-09-01 00:04:00,71.6,70.7,29.91,SE,135,2.3,2.3,97,0.00,RA,,0.00,0.0,WeatherDisplay:10.37,2014-09-01 04:04:00,
2014-09-01 00:09:00,71.2,70.6,29.91,South,180,2.3,2.3,98,0.00,RA,,0.00,0.0,WeatherDisplay:10.37,2014-09-01 04:09:00,
2014-09-01 00:14:00,71.2,70.6,29.91,South,180,3.5,3.5,98,0.00,CLR,,0.00,0.0,WeatherDisplay:10.37,2014-09-01 04:14:00,
2014-09-01 00:19:00,71.1,70.5,29.91,South,180,3.5,3.5,98,0.00,CLR,,0.00,0.0,WeatherDisplay:10.37,2014-09-01 04:19:00,
2014-09-01 00:24:00,71.1,70.5,29.91,SSE,158,3.5,0.0,98,0.00,CLR,,0.00,0.0,WeatherDisplay:10.37,2014-09-01 04:24:00,
2014-09-01 00:29:00,71.1,70.5,29.91,SE,135,2.3,2.3,98,0.00,CLR,,0.00,0.0,WeatherDisplay:10.37,2014-09-01 04:29:00,
2014-09-01 00:34:00,70.9,70.3,29.91,South,180,2.3,2.3,98,0.00,CLR,,0.00,0.0,WeatherDisplay:10.37,2014-09-01 04:34:00,
2014-09-01 00:39:00,70.9,70.3,29.91,South,180,2.3,2.3,98,0.00,CLR,,0.00,0.0,WeatherDisplay:10.37,2014-09-01 04:39:00,
2014-09-01 00:44:00,70.9,70.3,29.91,South,180,3.5,3.5,98,0.00,CLR,,0.00,0.0,WeatherDisplay:10.37,2014-09-01 04:44:00,
2014-09-01 00:49:00,70.7,70.1,29.91,SE,135,2.3,2.3,98,0.00,CLR,,0.00,0.0,WeatherDisplay:10.37,2014-09-01 04:49:00,
2014-09-01 00:54:00,70.7,70.1,29.91,SSE,158,3.5,3.5,98,0.00,CLR,,0.00,0.0,WeatherDisplay:10.37,2014-09-01 04:54:00,
2014-09-01 00:59:00,70.7,70.1,29.91,South,180,3.5,3.5,98,0.00,CLR,,0.00,0.0,WeatherDisplay:10.37,2014-09-01 04:59:00,
2014-09-01 01:04:00,70.5,69.9,29.91,South,180,4.6,4.6,98,0.00,CLR,,0.00,0.0,WeatherDisplay:10.37,2014-09-01 05:04:00,
2014-09-01 01:09:00,70.5,69.9,29.91,SE,135,3.5,3.5,98,0.00,CLR,,0.00,0.0,WeatherDisplay:10.37,2014-09-01 05:09:00,
2014-09-01 01:14:00,70.5,69.9,29.91,South,180,3.5,3.5,98,0.00,CLR,,0.00,0.0,WeatherDisplay:10.37,2014-09-01 05:14:00,
2014-09-01 01:19:00,70.3,69.7,29.92,SE,135,3.5,3.5,98,0.00,CLR,,0.00,0.0,WeatherDisplay:10.37,2014-09-01 05:19:00,
2014-09-01 01:24:00,70.3,69.7,29.92,SE,135,3.5,3.5,98,0.00,CLR,,0.00,0.0,WeatherDisplay:10.37,2014-09-01 05:24:00,
2014-09-01 01:29:00,70.3,69.7,29.92,South,180,2.3,2.3,98,0.00,CLR,,0.00,0.0,WeatherDisplay:10.37,2014-09-01 05:29:00,
2014-09-01 01:34:00,70.3,69.7,29.92,SW,225,3.5,3.5,98,0.00,CLR,,0.00,0.0,WeatherDisplay:10.37,2014-09-01 05:34:00,
2014-09-01 01:39:00,70.3,69.7,29.92,SE,135,3.5,3.5,98,0.00,CLR,,0.00,0.0,WeatherDisplay:10.37,2014-09-01 05:39:00,
2014-09-01 01:44:00,70.3,69.7,29.92,SE,135,1.2,1.2,98,0.00,CLR,,0.00,0.0,WeatherDisplay:10.37,2014-09-01 05:44:00,
2014-09-01 01:49:00,70.3,69.7,29.92,SE,135,2.3,2.3,98,0.00,CLR,,0.00,0.0,WeatherDisplay:10.37,2014-09-01 05:49:00,
2014-09-01 01:54:00,70.3,69.7,29.92,SE,135,2.3,2.3,98,0.00,CLR,,0.00,0.0,WeatherDisplay:10.37,2014-09-01 05:54:00,
2014-09-01 01:59:00,70.3,69.7,29.92,SE,135,2.3,2.3,98,0.00,CLR,,0.00,0.0,WeatherDisplay:10.37,2014-09-01 05:59:00,
2014-09-01 02:04:00,70.2,69.6,29.92,South,180,3.5,3.5,98,0.00,CLR,,0.00,0.0,WeatherDisplay:10.37,2014-09-01 06:04:00,
2014-09-01 02:09:00,70.2,69.6,29.92,SE,135,3.5,3.5,98,0.00,CLR,,0.00,0.0,WeatherDisplay:10.37,2014-09-01 06:09:00,
2014-09-01 02:14:00,70.2,69.6,29.93,South,180,3.5,3.5,98,0.00,CLR,,0.00,0.0,WeatherDisplay:10.37,2014-09-01 06:14:00,
2014-09-01 02:19:00,70.2,69.6,29.93,South,180,4.6,4.6,98,0.00,CLR,,0.00,0.0,WeatherDisplay:10.37,2014-09-01 06:19:00,
2014-09-01 02:24:00,70.2,69.6,29.93,SSE,158,3.5,3.5,98,0.00,CLR,,0.00,0.0,WeatherDisplay:10.37,2014-09-01 06:24:00,
2014-09-01 02:29:00,70.2,69.6,29.93,SSE,158,3.5,3.5,98,0.00,CLR,,0.00,0.0,WeatherDisplay:10.37,2014-09-01 06:29:00,
2014-09-01 02:34:00,70.2,69.6,29.92,SW,225,4.6,4.6,98,0.00,CLR,,0.00,0.0,WeatherDisplay:10.37,2014-09-01 06:34:00,
2014-09-01 02:39:00,70.2,69.6,29.92,South,180,2.3,2.3,98,0.00,CLR,,0.00,0.0,WeatherDisplay:10.37,2014-09-01 06:39:00,
2014-09-01 02:44:00,70.0,69.4,29.92,SW,225,1.2,0.0,98,0.00,CLR,,0.00,0.0,WeatherDisplay:10.37,2014-09-01 06:44:00,
2014-09-01 02:49:00,70.0,69.4,29.93,SE,135,2.3,2.3,98,0.00,CLR,,0.00,0.0,WeatherDisplay:10.37,2014-09-01 06:49:00,
2014-09-01 02:54:00,70.2,69.6,29.92,South,180,2.3,2.3,98,0.00,CLR,,0.00,0.0,WeatherDisplay:10.37,2014-09-01 06:54:00,
2014-09-01 02:59:00,70.2,69.6,29.92,SE,135,2.3,2.3,98,0.00,CLR,,0.00,0.0,WeatherDisplay:10.37,2014-09-01 06:59:00,
2014-09-01 03:04:00,70.2,69.6,29.92,South,180,2.3,2.3,98,0.00,CLR,,0.00,0.0,WeatherDisplay:10.37,2014-09-01 07:04:00,
2014-09-01 03:09:00,70.2,69.6,29.92,South,180,3.5,3.5,98,0.00,CLR,,0.00,0.0,WeatherDisplay:10.37,2014-09-01 07:09:00,
2014-09-01 03:14:00,70.2,69.6,29.92,SE,135,1.2,1.6,98,0.00,CLR,,0.00,0.0,WeatherDisplay:10.37,2014-09-01 07:14:00,
2014-09-01 03:19:00,70.2,69.6,29.92,SE,135,3.5,3.5,98,0.00,CLR,,0.00,0.0,WeatherDisplay:10.37,2014-09-01 07:19:00,
2014-09-01 03:24:00,70.3,69.7,29.92,SE,135,2.3,0.0,98,0.00,CLR,,0.00,0.0,WeatherDisplay:10.37,2014-09-01 07:24:00,
2014-09-01 03:29:00,70.3,69.7,29.92,South,180,3.5,3.5,98,0.00,CLR,,0.00,0.0,WeatherDisplay:10.37,2014-09-01 07:29:00,
2014-09-01 03:34:00,70.3,69.7,29.92,SW,225,5.8,5.8,98,0.00,CLR,,0.00,0.0,WeatherDisplay:10.37,2014-09-01 07:34:00,
2014-09-01 03:39:00,70.5,69.9,29.92,South,180,4.6,4.6,98,0.00,CLR,,0.00,0.0,WeatherDisplay:10.37,2014-09-01 07:39:00,
2014-09-01 03:44:00,70.7,70.1,29.91,South,180,3.5,0.0,98,0.00,CLR,,0.00,0.0,WeatherDisplay:10.37,2014-09-01 07:44:00,
2014-09-01 03:49:00,70.5,69.9,29.92,South,180,3.5,3.5,98,0.00,CLR,,0.00,0.0,WeatherDisplay:10.37,2014-09-01 07:49:00,
2014-09-01 03:54:00,70.5,69.9,29.91,SSW,202,3.5,3.5,98,0.00,CLR,,0.00,0.0,WeatherDisplay:10.37,2014-09-01 07:54:00,
2014-09-01 03:59:00,70.5,69.9,29.91,South,180,3.1,3.1,98,0.00,CLR,,0.00,0.0,WeatherDisplay:10.37,2014-09-01 07:59:00,
2014-09-01 04:04:00,70.5,69.9,29.91,SSW,202,1.2,1.2,98,0.00,CLR,,0.00,0.0,WeatherDisplay:10.37,2014-09-01 08:04:00,
2014-09-01 04:09:00,70.5,69.9,29.91,SE,135,3.5,3.5,98,0.00,CLR,,0.00,0.0,WeatherDisplay:10.37,2014-09-01 08:09:00,
2014-09-01 04:14:00,70.5,69.9,29.92,South,180,2.3,2.3,98,0.00,CLR,,0.00,0.0,WeatherDisplay:10.37,2014-09-01 08:14:00,
2014-09-01 04:19:00,70.7,70.1,29.92,South,180,3.5,3.5,98,0.00,CLR,,0.00,0.0,WeatherDisplay:10.37,2014-09-01 08:19:00,
2014-09-01 04:24:00,70.7,70.1,29.92,SW,225,3.5,3.5,98,0.00,CLR,,0.00,0.0,WeatherDisplay:10.37,2014-09-01 08:24:00,
2014-09-01 04:29:00,70.7,70.1,29.92,South,180,3.5,3.5,98,0.00,CLR,,0.00,0.0,WeatherDisplay:10.37,2014-09-01 08:29:00,
2014-09-01 04:34:00,70.9,70.3,29.92,South,180,4.6,4.6,98,0.00,CLR,,0.00,0.0,WeatherDisplay:10.37,2014-09-01 08:34:00,
2014-09-01 04:39:00,70.9,70.3,29.92,SE,135,5.8,5.8,98,0.00,CLR,,0.00,0.0,WeatherDisplay:10.37,2014-09-01 08:39:00,
2014-09-01 04:44:00,70.9,70.3,29.92,South,180,4.6,4.6,98,0.00,CLR,,0.00,0.0,WeatherDisplay:10.37,2014-09-01 08:44:00,
2014-09-01 04:49:00,70.9,70.3,29.92,South,180,4.6,4.6,98,0.00,CLR,,0.00,0.0,WeatherDisplay:10.37,2014-09-01 08:49:00,
2014-09-01 04:54:00,70.9,70.3,29.91,SE,135,3.5,3.5,98,0.00,CLR,,0.00,0.0,WeatherDisplay:10.37,2014-09-01 08:54:00,
2014-09-01 04:59:00,70.9,70.3,29.91,East,90,3.5,3.5,98,0.00,CLR,,0.00,0.0,WeatherDisplay:10.37,2014-09-01 08:59:00,
2014-09-01 05:04:00,70.9,70.3,29.91,SSW,202,5.8,5.8,98,0.00,CLR,,0.00,0.0,WeatherDisplay:10.37,2014-09-01 09:04:00,
2014-09-01 05:09:00,71.1,70.5,29.91,South,180,3.5,3.5,98,0.00,CLR,,0.00,0.0,WeatherDisplay:10.37,2014-09-01 09:09:00,
2014-09-01 05:14:00,71.1,70.5,29.92,SW,225,5.8,5.8,98,0.00,CLR,,0.00,0.0,WeatherDisplay:10.37,2014-09-01 09:14:00,
2014-09-01 05:19:00,71.1,70.5,29.92,SW,225,2.3,2.3,98,0.00,CLR,,0.00,0.0,WeatherDisplay:10.37,2014-09-01 09:19:00,
2014-09-01 05:24:00,71.2,70.6,29.91,South,180,3.5,3.5,98,0.00,CLR,,0.00,0.0,WeatherDisplay:10.37,2014-09-01 09:24:00,
2014-09-01 05:29:00,71.2,70.6,29.92,East,90,2.3,2.3,98,0.00,CLR,,0.00,0.0,WeatherDisplay:10.37,2014-09-01 09:29:00,
2014-09-01 05:34:00,71.2,70.6,29.92,SW,225,3.5,3.5,98,0.00,CLR,,0.00,0.0,WeatherDisplay:10.37,2014-09-01 09:34:00,
2014-09-01 05:39:00,71.2,70.6,29.92,South,180,4.6,4.6,98,0.00,CLR,,0.00,0.0,WeatherDisplay:10.37,2014-09-01 09:39:00,
2014-09-01 05:44:00,71.2,70.6,29.92,South,180,4.6,4.6,98,0.00,CLR,,0.00,0.0,WeatherDisplay:10.37,2014-09-01 09:44:00,
2014-09-01 05:49:00,71.2,70.6,29.92,SW,225,3.5,3.5,98,0.00,CLR,,0.00,0.0,WeatherDisplay:10.37,2014-09-01 09:49:00,
2014-09-01 05:54:00,71.4,70.8,29.93,SW,225,4.6,4.6,98,0.00,CLR,,0.00,0.0,WeatherDisplay:10.37,2014-09-01 09:54:00,
2014-09-01 05:59:00,71.4,70.8,29.93,SW,225,4.6,4.6,98,0.00,CLR,,0.00,0.0,WeatherDisplay:10.37,2014-09-01 09:59:00,
2014-09-01 06:04:00,71.4,70.8,29.92,SE,135,6.9,6.9,98,0.00,CLR,,0.00,0.0,WeatherDisplay:10.37,2014-09-01 10:04:00,
2014-09-01 06:09:00,71.4,70.8,29.92,South,180,4.6,4.6,98,0.00,CLR,,0.00,0.0,WeatherDisplay:10.37,2014-09-01 10:09:00,
2014-09-01 06:14:00,71.6,70.7,29.91,SW,225,3.5,3.5,97,0.00,CLR,,0.00,0.0,WeatherDisplay:10.37,2014-09-01 10:14:00,
2014-09-01 06:19:00,71.6,70.7,29.91,South,180,3.5,4.5,97,0.00,CLR,,0.00,0.0,WeatherDisplay:10.37,2014-09-01 10:19:00,
2014-09-01 06:24:00,71.6,70.7,29.92,SSW,202,4.6,4.6,97,0.00,CLR,,0.00,0.0,WeatherDisplay:10.37,2014-09-01 10:24:00,
2014-09-01 06:29:00,71.6,70.7,29.92,SE,135,5.8,5.8,97,0.00,CLR,,0.00,0.0,WeatherDisplay:10.37,2014-09-01 10:29:00,
2014-09-01 06:34:00,71.8,70.9,29.92,SE,135,2.3,3.1,97,0.00,CLR,,0.00,0.0,WeatherDisplay:10.37,2014-09-01 10:34:00,
2014-09-01 06:39:00,71.8,70.9,29.92,SW,225,4.6,4.6,97,0.00,CLR,,0.00,0.0,WeatherDisplay:10.37,2014-09-01 10:39:00,
2014-09-01 06:44:00,71.8,70.9,29.92,SSE,158,3.5,3.5,97,0.00,CLR,,0.00,0.0,WeatherDisplay:10.37,2014-09-01 10:44:00,
2014-09-01 06:49:00,72.0,71.1,29.92,SE,135,4.6,4.6,97,0.00,CLR,,0.00,0.0,WeatherDisplay:10.37,2014-09-01 10:49:00,
2014-09-01 06:54:00,72.0,71.1,29.92,SSW,202,4.6,4.6,97,0.00,CLR,,0.00,0.0,WeatherDisplay:10.37,2014-09-01 10:54:00,
2014-09-01 06:59:00,72.1,71.2,29.92,SE,135,2.3,2.3,97,0.00,CLR,,0.00,0.0,WeatherDisplay:10.37,2014-09-01 10:59:00,
2014-09-01 07:04:00,72.1,71.2,29.92,SE,135,2.3,2.3,97,0.00,CLR,,0.00,0.0,WeatherDisplay:10.37,2014-09-01 11:04:00,
2014-09-01 07:09:00,72.1,71.2,29.92,South,180,3.5,3.5,97,0.00,CLR,,0.00,0.0,WeatherDisplay:10.37,2014-09-01 11:09:00,
2014-09-01 07:14:00,72.1,71.2,29.92,SW,225,3.5,3.5,97,0.00,CLR,,0.00,0.0,WeatherDisplay:10.37,2014-09-01 11:14:00,
2014-09-01 07:19:00,72.1,71.2,29.91,SE,135,3.5,3.5,97,0.00,CLR,,0.00,0.0,WeatherDisplay:10.37,2014-09-01 11:19:00,
2014-09-01 07:24:00,72.1,71.2,29.91,SE,135,3.5,3.5,97,0.00,CLR,,0.00,0.0,WeatherDisplay:10.37,2014-09-01 11:24:00,
2014-09-01 07:29:00,72.3,71.4,29.91,South,180,2.3,2.3,97,0.00,CLR,,0.00,0.0,WeatherDisplay:10.37,2014-09-01 11:29:00,
2014-09-01 07:34:00,72.3,71.4,29.92,SW,225,5.8,5.8,97,0.00,CLR,,0.00,0.0,WeatherDisplay:10.37,2014-09-01 11:34:00,
2014-09-01 07:39:00,72.3,71.4,29.92,South,180,5.8,5.8,97,0.00,CLR,,0.00,0.0,WeatherDisplay:10.37,2014-09-01 11:39:00,
2014-09-01 07:44:00,72.5,71.6,29.92,SE,135,4.6,4.6,97,0.00,CLR,,0.00,0.0,WeatherDisplay:10.37,2014-09-01 11:44:00,
2014-09-01 07:49:00,72.7,71.8,29.92,South,180,3.5,3.5,97,0.00,CLR,,0.00,0.0,WeatherDisplay:10.37,2014-09-01 11:49:00,
2014-09-01 07:54:00,72.7,71.8,29.92,SSE,158,5.8,5.8,97,0.00,CLR,,0.00,0.0,WeatherDisplay:10.37,2014-09-01 11:54:00,
2014-09-01 07:59:00,72.9,72.0,29.92,South,180,4.6,4.6,97,0.00,CLR,,0.00,0.0,WeatherDisplay:10.37,2014-09-01 11:59:00,
2014-09-01 08:04:00,72.9,72.0,29.92,South,180,4.6,4.6,97,0.00,CLR,,0.00,0.0,WeatherDisplay:10.37,2014-09-01 12:04:00,
2014-09-01 08:09:00,73.0,72.1,29.92,South,180,4.6,4.6,97,0.00,CLR,,0.00,0.0,WeatherDisplay:10.37,2014-09-01 12:09:00,
2014-09-01 08:14:00,73.0,72.1,29.92,SSE,158,5.8,5.8,97,0.00,CLR,,0.00,0.0,WeatherDisplay:10.37,2014-09-01 12:14:00,
2014-09-01 08:19:00,73.0,72.1,29.92,SE,135,6.9,6.9,97,0.00,CLR,,0.00,0.0,WeatherDisplay:10.37,2014-09-01 12:19:00,
2014-09-01 08:24:00,73.2,72.3,29.92,SSE,158,4.6,4.6,97,0.00,CLR,,0.00,0.0,WeatherDisplay:10.37,2014-09-01 12:24:00,